Portada
METAR-TAF:

METAR-TAF

Aeropuertos :

Bagdad, Iraq

Aeropuerto Internacional de Bagdad

latitud: 33-15-45N, longitud: 44-14-04E, altitud: 35 m

Observación

El informe se hizo hace 16 minutos, a las 00:00 UTC
Viento 5 kt del noroeste
Temperatura 26°C
Humedad 32%
Presión 1008 hPa
Visibilidad 10 km o más
sin nubes por debajo de 1500 m y sin presencia de cumulonimbus.

METAR: ORBI 260000Z 32005KT CAVOK 26/08 Q1008

Hora: 03:16 (00:16 UTC)

Pronóstico

El informe se hizo hace 2 horas y 16 minutos, a las 22:00 UTC
Pronóstico válido del 26 a las 00 UTC al 26 a las 24 UTC
Viento 5 kt del norte-noroeste
Visibilidad: 7000 m

TAF: ORBI 252200Z 2600/2624 34005KT 7000 NSC

Observaciones y pronósticos meteorológicos de más de 4000 aeropuertos (mensajes METAR y TAF).

Los puntos amarillos y rojos representan las estaciones disponibles.

Ponga el ratón en el punto deseado para ver el nombre de la estación.

Haga clic para ver las observaciones y los pronósticos meteorológicos.

Para cambiar el mapa : haga clic en los botones verdes con una cruz de color negro para hacer un zoom, en el botón verde con un guión para alejar o en las flechas verdes para mapas adyacentes.


METAR-TAF: